sensor_id;sensor_type;location;lat;lon;timestamp;pressure;altitude;pressure_sealevel;temperature;humidity
75063;BME280;63981;51.052;13.754;2023-02-28T00:01:21;101845.09;;;0.54;73.63
75063;BME280;63981;51.052;13.754;2023-02-28T00:03:47;101847.66;;;0.42;73.69
75063;BME280;63981;51.052;13.754;2023-02-28T00:06:13;101845.09;;;0.54;74.16
75063;BME280;63981;51.052;13.754;2023-02-28T00:08:39;101825.13;;;0.22;71.75
75063;BME280;63981;51.052;13.754;2023-02-28T00:11:08;101840.69;;;0.22;73.06
75063;BME280;63981;51.052;13.754;2023-02-28T00:13:35;101793.06;;;-0.13;73.97
75063;BME280;63981;51.052;13.754;2023-02-28T00:16:03;101844.97;;;0.13;72.99
75063;BME280;63981;51.052;13.754;2023-02-28T00:18:30;101838.09;;;0.24;73.97
75063;BME280;63981;51.052;13.754;2023-02-28T00:20:55;101807.88;;;0.32;72.96
75063;BME280;63981;51.052;13.754;2023-02-28T00:23:21;101839.00;;;0.43;73.57
75063;BME280;63981;51.052;13.754;2023-02-28T00:25:47;101832.97;;;0.71;71.70
75063;BME280;63981;51.052;13.754;2023-02-28T00:28:13;101825.19;;;0.56;71.92
75063;BME280;63981;51.052;13.754;2023-02-28T00:30:38;101832.09;;;0.75;72.27
75063;BME280;63981;51.052;13.754;2023-02-28T00:33:04;101832.06;;;0.23;73.02
75063;BME280;63981;51.052;13.754;2023-02-28T00:35:30;101839.75;;;-0.04;73.59
75063;BME280;63981;51.052;13.754;2023-02-28T00:37:56;101813.75;;;-0.38;74.17
75063;BME280;63981;51.052;13.754;2023-02-28T00:40:21;101786.00;;;-0.65;74.92
75063;BME280;63981;51.052;13.754;2023-02-28T00:42:47;101826.69;;;-0.33;74.47
75063;BME280;63981;51.052;13.754;2023-02-28T00:45:13;101808.50;;;-0.50;75.14
75063;BME280;63981;51.052;13.754;2023-02-28T00:47:38;101835.34;;;-0.30;74.76
75063;BME280;63981;51.052;13.754;2023-02-28T00:50:05;101840.56;;;-0.25;75.04
75063;BME280;63981;51.052;13.754;2023-02-28T00:52:31;101841.44;;;-0.26;74.21
75063;BME280;63981;51.052;13.754;2023-02-28T00:54:57;101841.44;;;-0.14;74.73
75063;BME280;63981;51.052;13.754;2023-02-28T00:57:23;101836.28;;;-0.12;73.73
75063;BME280;63981;51.052;13.754;2023-02-28T00:59:48;101829.44;;;0.08;74.16
75063;BME280;63981;51.052;13.754;2023-02-28T01:02:14;101767.13;;;-0.28;73.76
75063;BME280;63981;51.052;13.754;2023-02-28T01:04:40;101826.88;;;0.20;73.54
75063;BME280;63981;51.052;13.754;2023-02-28T01:07:05;101827.72;;;0.25;73.92
75063;BME280;63981;51.052;13.754;2023-02-28T01:09:31;101830.31;;;0.24;73.83
75063;BME280;63981;51.052;13.754;2023-02-28T01:11:57;101838.91;;;-0.02;73.78
75063;BME280;63981;51.052;13.754;2023-02-28T01:14:23;101838.03;;;-0.02;73.74
75063;BME280;63981;51.052;13.754;2023-02-28T01:16:50;101826.03;;;0.35;72.48
75063;BME280;63981;51.052;13.754;2023-02-28T01:19:17;101829.50;;;0.40;72.83
75063;BME280;63981;51.052;13.754;2023-02-28T01:21:42;101830.31;;;0.22;72.34
75063;BME280;63981;51.052;13.754;2023-02-28T01:24:08;101793.97;;;-0.11;72.86
75063;BME280;63981;51.052;13.754;2023-02-28T01:26:35;101821.66;;;0.10;73.03
75063;BME280;63981;51.052;13.754;2023-02-28T01:29:00;101761.09;;;-0.21;73.69
75063;BME280;63981;51.052;13.754;2023-02-28T01:31:26;101836.34;;;0.08;73.22
75063;BME280;63981;51.052;13.754;2023-02-28T01:33:52;101799.97;;;-0.15;74.04
75063;BME280;63981;51.052;13.754;2023-02-28T01:36:20;101822.53;;;0.22;73.20
75063;BME280;63981;51.052;13.754;2023-02-28T01:38:46;101830.22;;;-0.16;74.03
75063;BME280;63981;51.052;13.754;2023-02-28T01:41:17;101827.63;;;-0.20;74.25
75063;BME280;63981;51.052;13.754;2023-02-28T01:46:09;101819.06;;;0.05;73.98
75063;BME280;63981;51.052;13.754;2023-02-28T01:48:38;101816.44;;;-0.09;73.98
75063;BME280;63981;51.052;13.754;2023-02-28T01:51:11;101747.28;;;-0.17;73.66
75063;BME280;63981;51.052;13.754;2023-02-28T01:53:45;101812.13;;;0.12;72.88
75063;BME280;63981;51.052;13.754;2023-02-28T01:56:16;101818.19;;;0.06;73.33
75063;BME280;63981;51.052;13.754;2023-02-28T01:58:49;101803.50;;;0.01;73.49
75063;BME280;63981;51.052;13.754;2023-02-28T02:01:16;101787.94;;;0.11;72.98
75063;BME280;63981;51.052;13.754;2023-02-28T02:03:49;101813.06;;;0.35;73.15
75063;BME280;63981;51.052;13.754;2023-02-28T02:06:27;101814.75;;;0.09;73.55
75063;BME280;63981;51.052;13.754;2023-02-28T02:08:54;101777.47;;;-0.30;73.77
75063;BME280;63981;51.052;13.754;2023-02-28T02:11:22;101800.84;;;-0.19;73.83
75063;BME280;63981;51.052;13.754;2023-02-28T02:27:26;101772.34;;;-0.18;74.74
75063;BME280;63981;51.052;13.754;2023-02-28T02:30:12;101807.72;;;-0.27;74.66
75063;BME280;63981;51.052;13.754;2023-02-28T02:41:17;101804.38;;;0.04;74.70
75063;BME280;63981;51.052;13.754;2023-02-28T02:43:51;101805.19;;;-0.02;74.72
75063;BME280;63981;51.052;13.754;2023-02-28T02:46:28;101809.50;;;-0.01;73.88
75063;BME280;63981;51.052;13.754;2023-02-28T02:48:55;101790.38;;;-0.47;74.58
75063;BME280;63981;51.052;13.754;2023-02-28T02:51:24;101792.91;;;-0.57;74.80
75063;BME280;63981;51.052;13.754;2023-02-28T02:54:05;101811.22;;;-0.18;74.71
75063;BME280;63981;51.052;13.754;2023-02-28T02:56:34;101799.88;;;-0.49;74.43
75063;BME280;63981;51.052;13.754;2023-02-28T02:59:04;101729.84;;;-0.67;75.38
75063;BME280;63981;51.052;13.754;2023-02-28T03:01:34;101820.75;;;-0.12;74.61
75063;BME280;63981;51.052;13.754;2023-02-28T03:04:05;101822.38;;;-0.36;75.49
75063;BME280;63981;51.052;13.754;2023-02-28T03:06:33;101774.66;;;-0.80;76.10
75063;BME280;63981;51.052;13.754;2023-02-28T03:09:00;101735.81;;;-0.90;75.66
75063;BME280;63981;51.052;13.754;2023-02-28T03:11:26;101813.78;;;-0.22;75.68
75063;BME280;63981;51.052;13.754;2023-02-28T03:16:34;101792.91;;;-0.62;75.47
75063;BME280;63981;51.052;13.754;2023-02-28T03:24:34;101813.63;;;-0.57;76.00
75063;BME280;63981;51.052;13.754;2023-02-28T03:27:11;101792.06;;;-0.55;75.86
75063;BME280;63981;51.052;13.754;2023-02-28T03:29:58;101791.13;;;-0.68;75.73
75063;BME280;63981;51.052;13.754;2023-02-28T03:32:35;101810.25;;;-0.44;75.94
75063;BME280;63981;51.052;13.754;2023-02-28T03:35:08;101810.00;;;-0.88;77.26
75063;BME280;63981;51.052;13.754;2023-02-28T03:37:39;101810.88;;;-0.86;76.67
75063;BME280;63981;51.052;13.754;2023-02-28T03:40:12;101807.34;;;-1.04;77.45
75063;BME280;63981;51.052;13.754;2023-02-28T03:42:42;101815.09;;;-1.01;76.85
75063;BME280;63981;51.052;13.754;2023-02-28T03:45:13;101806.41;;;-1.07;78.02
75063;BME280;63981;51.052;13.754;2023-02-28T03:48:02;101816.84;;;-0.95;77.89
75063;BME280;63981;51.052;13.754;2023-02-28T03:50:38;101813.41;;;-0.93;77.73
75063;BME280;63981;51.052;13.754;2023-02-28T03:55:47;101807.19;;;-1.19;78.77
75063;BME280;63981;51.052;13.754;2023-02-28T03:58:16;101817.56;;;-1.17;78.84
75063;BME280;63981;51.052;13.754;2023-02-28T04:01:23;101784.66;;;-1.34;78.81
75063;BME280;63981;51.052;13.754;2023-02-28T04:03:40;101821.81;;;-1.26;78.69
75063;BME280;63981;51.052;13.754;2023-02-28T04:06:08;101832.84;;;-1.43;79.28
75063;BME280;63981;51.052;13.754;2023-02-28T04:08:39;101831.88;;;-1.58;79.25
75063;BME280;63981;51.052;13.754;2023-02-28T04:13:40;101831.16;;;-1.43;79.66
75063;BME280;63981;51.052;13.754;2023-02-28T04:16:09;101837.31;;;-1.30;78.90
75063;BME280;63981;51.052;13.754;2023-02-28T04:18:38;101838.88;;;-1.44;80.27
75063;BME280;63981;51.052;13.754;2023-02-28T04:21:05;101797.25;;;-1.75;78.59
75063;BME280;63981;51.052;13.754;2023-02-28T04:23:31;101846.75;;;-1.34;79.98
75063;BME280;63981;51.052;13.754;2023-02-28T04:25:57;101841.00;;;-0.96;80.26
75063;BME280;63981;51.052;13.754;2023-02-28T04:28:23;101843.38;;;-1.25;80.81
75063;BME280;63981;51.052;13.754;2023-02-28T04:30:59;101851.94;;;-1.32;80.16
75063;BME280;63981;51.052;13.754;2023-02-28T04:33:25;101850.06;;;-1.49;79.79
75063;BME280;63981;51.052;13.754;2023-02-28T04:36:00;101851.53;;;-1.73;81.59
75063;BME280;63981;51.052;13.754;2023-02-28T04:38:29;101849.16;;;-1.55;81.91
75063;BME280;63981;51.052;13.754;2023-02-28T04:40:57;101813.00;;;-1.51;80.89
75063;BME280;63981;51.052;13.754;2023-02-28T04:43:23;101832.84;;;-1.46;80.28
75063;BME280;63981;51.052;13.754;2023-02-28T04:45:48;101804.84;;;-1.93;81.83
75063;BME280;63981;51.052;13.754;2023-02-28T04:48:14;101850.78;;;-1.63;80.02
75063;BME280;63981;51.052;13.754;2023-02-28T04:50:40;101848.19;;;-1.63;82.23
75063;BME280;63981;51.052;13.754;2023-02-28T04:53:06;101860.88;;;-1.88;80.73
75063;BME280;63981;51.052;13.754;2023-02-28T04:55:31;101856.44;;;-1.96;82.33
75063;BME280;63981;51.052;13.754;2023-02-28T04:57:57;101845.22;;;-2.01;80.97
75063;BME280;63981;51.052;13.754;2023-02-28T05:00:23;101789.69;;;-2.39;81.53
75063;BME280;63981;51.052;13.754;2023-02-28T05:02:49;101856.50;;;-1.93;81.89
75063;BME280;63981;51.052;13.754;2023-02-28T05:05:15;101824.09;;;-1.62;83.23
75063;BME280;63981;51.052;13.754;2023-02-28T05:07:44;101856.25;;;-1.31;80.40
75063;BME280;63981;51.052;13.754;2023-02-28T05:10:10;101838.13;;;-1.31;80.04
75063;BME280;63981;51.052;13.754;2023-02-28T05:12:36;101803.75;;;-2.11;81.43
75063;BME280;63981;51.052;13.754;2023-02-28T05:15:03;101850.28;;;-2.09;81.40
75063;BME280;63981;51.052;13.754;2023-02-28T05:17:30;101827.69;;;-2.27;81.46
75063;BME280;63981;51.052;13.754;2023-02-28T05:19:56;101800.69;;;-2.52;81.83
75063;BME280;63981;51.052;13.754;2023-02-28T05:22:22;101852.94;;;-2.04;81.03
75063;BME280;63981;51.052;13.754;2023-02-28T05:24:48;101870.00;;;-2.17;81.79
75063;BME280;63981;51.052;13.754;2023-02-28T05:27:13;101876.66;;;-2.34;82.64
75063;BME280;63981;51.052;13.754;2023-02-28T05:29:39;101858.44;;;-2.47;82.21
75063;BME280;63981;51.052;13.754;2023-02-28T05:32:12;101877.25;;;-2.55;81.96
75063;BME280;63981;51.052;13.754;2023-02-28T05:34:39;101821.44;;;-2.46;82.64
75063;BME280;63981;51.052;13.754;2023-02-28T05:37:06;101886.88;;;-2.44;82.66
75063;BME280;63981;51.052;13.754;2023-02-28T05:39:32;101875.53;;;-2.53;83.26
75063;BME280;63981;51.052;13.754;2023-02-28T05:41:58;101879.97;;;-2.45;83.99
75063;BME280;63981;51.052;13.754;2023-02-28T05:44:24;101863.28;;;-2.70;83.21
75063;BME280;63981;51.052;13.754;2023-02-28T05:46:50;101831.09;;;-2.94;83.60
75063;BME280;63981;51.052;13.754;2023-02-28T05:49:16;101880.31;;;-2.81;82.56
75063;BME280;63981;51.052;13.754;2023-02-28T05:51:41;101859.31;;;-3.04;83.00
75063;BME280;63981;51.052;13.754;2023-02-28T05:54:07;101869.94;;;-2.85;83.29
75063;BME280;63981;51.052;13.754;2023-02-28T05:56:33;101887.44;;;-2.63;83.65
75063;BME280;63981;51.052;13.754;2023-02-28T05:59:04;101864.03;;;-2.77;83.41
75063;BME280;63981;51.052;13.754;2023-02-28T06:03:59;101889.13;;;-2.67;84.99
75063;BME280;63981;51.052;13.754;2023-02-28T06:06:26;101892.72;;;-2.57;83.69
75063;BME280;63981;51.052;13.754;2023-02-28T06:08:51;101887.41;;;-2.66;83.39
75063;BME280;63981;51.052;13.754;2023-02-28T06:11:17;101848.09;;;-3.06;84.03
75063;BME280;63981;51.052;13.754;2023-02-28T06:13:45;101843.84;;;-3.02;84.44
75063;BME280;63981;51.052;13.754;2023-02-28T06:16:11;101901.00;;;-2.76;84.12
75063;BME280;63981;51.052;13.754;2023-02-28T06:18:38;101877.88;;;-2.72;83.63
75063;BME280;63981;51.052;13.754;2023-02-28T06:21:04;101898.94;;;-2.43;83.26
75063;BME280;63981;51.052;13.754;2023-02-28T06:23:29;101865.91;;;-2.65;83.78
75063;BME280;63981;51.052;13.754;2023-02-28T06:25:55;101912.69;;;-2.44;83.88
75063;BME280;63981;51.052;13.754;2023-02-28T06:28:25;101917.84;;;-2.45;84.32
75063;BME280;63981;51.052;13.754;2023-02-28T06:30:51;101910.00;;;-2.51;83.31
75063;BME280;63981;51.052;13.754;2023-02-28T06:33:17;101887.44;;;-2.63;84.15
75063;BME280;63981;51.052;13.754;2023-02-28T06:35:52;101913.56;;;-2.42;85.41
75063;BME280;63981;51.052;13.754;2023-02-28T06:38:18;101928.28;;;-2.36;84.72
75063;BME280;63981;51.052;13.754;2023-02-28T06:40:44;101909.13;;;-2.50;84.95
75063;BME280;63981;51.052;13.754;2023-02-28T06:43:10;101861.41;;;-2.78;83.38
75063;BME280;63981;51.052;13.754;2023-02-28T06:45:42;101937.84;;;-2.29;81.91
75063;BME280;63981;51.052;13.754;2023-02-28T06:48:09;101933.59;;;-2.24;80.97
75063;BME280;63981;51.052;13.754;2023-02-28T06:50:36;101903.22;;;-2.43;81.18
75063;BME280;63981;51.052;13.754;2023-02-28T06:53:01;101917.06;;;-2.37;82.46
75063;BME280;63981;51.052;13.754;2023-02-28T06:55:27;101948.41;;;-2.12;82.08
75063;BME280;63981;51.052;13.754;2023-02-28T06:57:53;101963.19;;;-2.03;80.53
75063;BME280;63981;51.052;13.754;2023-02-28T07:00:20;101951.44;;;-1.79;79.21
75063;BME280;63981;51.052;13.754;2023-02-28T07:02:46;101931.81;;;-1.60;79.40
75063;BME280;63981;51.052;13.754;2023-02-28T07:05:12;101938.66;;;-1.66;78.23
75063;BME280;63981;51.052;13.754;2023-02-28T07:07:39;101861.94;;;-1.69;79.34
75063;BME280;63981;51.052;13.754;2023-02-28T07:10:10;101942.16;;;-0.72;78.42
75063;BME280;63981;51.052;13.754;2023-02-28T07:12:37;101952.81;;;-1.32;77.48
75063;BME280;63981;51.052;13.754;2023-02-28T07:15:04;101954.91;;;-0.93;77.84
75063;BME280;63981;51.052;13.754;2023-02-28T07:17:30;101911.84;;;-0.85;75.02
75063;BME280;63981;51.052;13.754;2023-02-28T07:19:56;101953.78;;;-0.12;74.83
75063;BME280;63981;51.052;13.754;2023-02-28T07:22:22;101953.09;;;0.32;72.14
75063;BME280;63981;51.052;13.754;2023-02-28T07:24:47;101948.78;;;0.29;72.43
75063;BME280;63981;51.052;13.754;2023-02-28T07:27:13;101943.53;;;0.14;72.88
75063;BME280;63981;51.052;13.754;2023-02-28T07:29:52;101922.28;;;-0.71;72.87
75063;BME280;63981;51.052;13.754;2023-02-28T07:32:19;101883.91;;;-1.27;72.01
75063;BME280;63981;51.052;13.754;2023-02-28T07:34:45;101945.81;;;-0.39;73.46
75063;BME280;63981;51.052;13.754;2023-02-28T07:37:11;101946.16;;;0.25;72.23
75063;BME280;63981;51.052;13.754;2023-02-28T07:39:37;101928.94;;;0.41;69.99
75063;BME280;63981;51.052;13.754;2023-02-28T07:42:06;101926.44;;;0.79;68.58
75063;BME280;63981;51.052;13.754;2023-02-28T07:44:34;101938.25;;;2.39;65.41
75063;BME280;63981;51.052;13.754;2023-02-28T07:47:00;101932.03;;;3.71;63.79
75063;BME280;63981;51.052;13.754;2023-02-28T07:49:26;101879.63;;;5.11;57.97
75063;BME280;63981;51.052;13.754;2023-02-28T07:51:52;101938.00;;;2.81;59.58
75063;BME280;63981;51.052;13.754;2023-02-28T07:54:17;101930.78;;;4.03;59.67
75063;BME280;63981;51.052;13.754;2023-02-28T07:56:43;101932.47;;;5.28;56.94
75063;BME280;63981;51.052;13.754;2023-02-28T07:59:09;101924.09;;;6.05;53.84
75063;BME280;63981;51.052;13.754;2023-02-28T08:01:34;101935.88;;;4.13;55.23
75063;BME280;63981;51.052;13.754;2023-02-28T08:04:00;101929.81;;;4.76;54.83
75063;BME280;63981;51.052;13.754;2023-02-28T08:06:26;101930.00;;;6.16;51.98
75063;BME280;63981;51.052;13.754;2023-02-28T08:08:52;101797.19;;;6.94;47.33
75063;BME280;63981;51.052;13.754;2023-02-28T08:11:19;101897.75;;;7.91;45.75
75063;BME280;63981;51.052;13.754;2023-02-28T08:13:45;101911.31;;;8.66;45.55
75063;BME280;63981;51.052;13.754;2023-02-28T08:16:12;101822.75;;;6.49;43.96
75063;BME280;63981;51.052;13.754;2023-02-28T08:18:40;101887.94;;;6.22;48.63
75063;BME280;63981;51.052;13.754;2023-02-28T08:21:07;101927.25;;;4.74;52.78
75063;BME280;63981;51.052;13.754;2023-02-28T08:23:35;101926.47;;;5.23;51.14
75063;BME280;63981;51.052;13.754;2023-02-28T08:26:01;101833.03;;;4.30;51.66
75063;BME280;63981;51.052;13.754;2023-02-28T08:28:27;101934.50;;;3.83;54.53
75063;BME280;63981;51.052;13.754;2023-02-28T08:30:53;101881.38;;;3.92;52.80
75063;BME280;63981;51.052;13.754;2023-02-28T08:33:19;101940.88;;;4.33;53.26
75063;BME280;63981;51.052;13.754;2023-02-28T08:35:45;101937.84;;;4.64;54.17
75063;BME280;63981;51.052;13.754;2023-02-28T08:38:11;101938.06;;;3.73;52.95
75063;BME280;63981;51.052;13.754;2023-02-28T08:40:37;101915.53;;;4.40;52.87
75063;BME280;63981;51.052;13.754;2023-02-28T08:43:02;101940.38;;;4.01;55.26
75063;BME280;63981;51.052;13.754;2023-02-28T08:45:28;101934.94;;;4.21;53.84
75063;BME280;63981;51.052;13.754;2023-02-28T08:47:54;101956.88;;;3.14;56.45
75063;BME280;63981;51.052;13.754;2023-02-28T08:50:21;101911.25;;;4.36;53.08
75063;BME280;63981;51.052;13.754;2023-02-28T08:52:47;101944.94;;;5.13;51.37
75063;BME280;63981;51.052;13.754;2023-02-28T08:55:12;101928.63;;;4.98;50.26
75063;BME280;63981;51.052;13.754;2023-02-28T08:57:38;101912.56;;;4.00;53.39
75063;BME280;63981;51.052;13.754;2023-02-28T09:00:04;101940.63;;;4.52;52.40
75063;BME280;63981;51.052;13.754;2023-02-28T09:02:31;101898.09;;;5.00;49.23
75063;BME280;63981;51.052;13.754;2023-02-28T09:04:57;101936.28;;;5.58;50.38
75063;BME280;63981;51.052;13.754;2023-02-28T09:07:24;101842.16;;;5.57;49.76
75063;BME280;63981;51.052;13.754;2023-02-28T09:09:49;101907.50;;;6.85;46.92
75063;BME280;63981;51.052;13.754;2023-02-28T09:12:27;101927.25;;;7.35;44.79
75063;BME280;63981;51.052;13.754;2023-02-28T09:14:53;101916.78;;;7.34;45.65
75063;BME280;63981;51.052;13.754;2023-02-28T09:17:19;101917.94;;;8.18;42.92
75063;BME280;63981;51.052;13.754;2023-02-28T09:19:49;101920.34;;;7.96;42.81
75063;BME280;63981;51.052;13.754;2023-02-28T09:22:15;101916.47;;;8.41;43.08
75063;BME280;63981;51.052;13.754;2023-02-28T09:24:41;101920.66;;;7.19;43.11
75063;BME280;63981;51.052;13.754;2023-02-28T09:27:07;101916.25;;;8.48;42.62
75063;BME280;63981;51.052;13.754;2023-02-28T09:29:33;101878.22;;;7.70;42.20
75063;BME280;63981;51.052;13.754;2023-02-28T09:31:59;101920.69;;;6.02;44.23
75063;BME280;63981;51.052;13.754;2023-02-28T09:34:26;101918.97;;;8.14;41.84
75063;BME280;63981;51.052;13.754;2023-02-28T09:36:53;101915.84;;;7.36;42.94
75063;BME280;63981;51.052;13.754;2023-02-28T09:39:21;101903.91;;;8.50;40.55
75063;BME280;63981;51.052;13.754;2023-02-28T09:41:50;101896.63;;;8.86;38.74
75063;BME280;63981;51.052;13.754;2023-02-28T09:44:31;101844.72;;;6.80;39.37
75063;BME280;63981;51.052;13.754;2023-02-28T09:47:08;101914.13;;;7.35;39.88
75063;BME280;63981;51.052;13.754;2023-02-28T09:49:47;101902.03;;;9.35;36.92
75063;BME280;63981;51.052;13.754;2023-02-28T09:52:23;101907.84;;;7.07;39.68
75063;BME280;63981;51.052;13.754;2023-02-28T09:54:52;101896.72;;;6.97;39.66
75063;BME280;63981;51.052;13.754;2023-02-28T10:05:11;101899.50;;;10.30;33.34
75063;BME280;63981;51.052;13.754;2023-02-28T10:08:08;101894.63;;;10.86;30.00
75063;BME280;63981;51.052;13.754;2023-02-28T10:10:45;101851.03;;;12.55;30.64
75063;BME280;63981;51.052;13.754;2023-02-28T10:13:19;101903.53;;;7.38;33.96
75063;BME280;63981;51.052;13.754;2023-02-28T10:15:47;101900.72;;;9.22;34.17
75063;BME280;63981;51.052;13.754;2023-02-28T10:18:21;101915.34;;;7.55;37.29
75063;BME280;63981;51.052;13.754;2023-02-28T10:20:49;101900.13;;;9.40;33.81
75063;BME280;63981;51.052;13.754;2023-02-28T10:23:35;101874.13;;;5.26;40.72
75063;BME280;63981;51.052;13.754;2023-02-28T10:26:05;101918.84;;;6.07;39.15
75063;BME280;63981;51.052;13.754;2023-02-28T10:28:35;101904.50;;;4.20;42.87
75063;BME280;63981;51.052;13.754;2023-02-28T10:31:02;101875.84;;;4.75;41.81
75063;BME280;63981;51.052;13.754;2023-02-28T10:33:31;101833.19;;;6.12;40.38
75063;BME280;63981;51.052;13.754;2023-02-28T10:35:57;101923.56;;;5.40;40.83
75063;BME280;63981;51.052;13.754;2023-02-28T10:38:36;101898.72;;;6.09;41.13
75063;BME280;63981;51.052;13.754;2023-02-28T10:41:11;101918.09;;;6.80;39.43
75063;BME280;63981;51.052;13.754;2023-02-28T10:43:37;101915.66;;;8.39;37.71
75063;BME280;63981;51.052;13.754;2023-02-28T10:46:24;101915.00;;;7.68;37.30
75063;BME280;63981;51.052;13.754;2023-02-28T10:49:34;101919.22;;;6.30;41.04
75063;BME280;63981;51.052;13.754;2023-02-28T10:52:00;101880.88;;;9.13;33.90
75063;BME280;63981;51.052;13.754;2023-02-28T10:54:31;101919.06;;;4.97;40.18
75063;BME280;63981;51.052;13.754;2023-02-28T10:59:35;101881.19;;;9.54;34.44
75063;BME280;63981;51.052;13.754;2023-02-28T11:02:01;101893.97;;;8.60;36.08
75063;BME280;63981;51.052;13.754;2023-02-28T11:09:38;101849.56;;;15.99;26.40
75063;BME280;63981;51.052;13.754;2023-02-28T11:12:06;101859.75;;;13.10;27.98
75063;BME280;63981;51.052;13.754;2023-02-28T11:14:39;101839.63;;;16.98;24.04
75063;BME280;63981;51.052;13.754;2023-02-28T11:17:24;101831.94;;;21.14;19.21
75063;BME280;63981;51.052;13.754;2023-02-28T11:19:53;101803.47;;;21.23;19.44
75063;BME280;63981;51.052;13.754;2023-02-28T11:22:31;101773.97;;;23.58;16.14
75063;BME280;63981;51.052;13.754;2023-02-28T11:25:23;101783.81;;;25.11;15.44
75063;BME280;63981;51.052;13.754;2023-02-28T11:27:59;101848.09;;;17.93;21.41
75063;BME280;63981;51.052;13.754;2023-02-28T11:30:38;101849.22;;;16.05;23.41
75063;BME280;63981;51.052;13.754;2023-02-28T11:35:57;101813.75;;;24.47;16.41
75063;BME280;63981;51.052;13.754;2023-02-28T11:38:25;101804.59;;;22.12;17.34
75063;BME280;63981;51.052;13.754;2023-02-28T11:51:35;101776.88;;;24.02;15.37
75063;BME280;63981;51.052;13.754;2023-02-28T11:56:54;101809.28;;;21.07;16.78
75063;BME280;63981;51.052;13.754;2023-02-28T12:10:36;101815.44;;;19.44;18.79
75063;BME280;63981;51.052;13.754;2023-02-28T12:21:11;101779.31;;;17.86;20.91
75063;BME280;63981;51.052;13.754;2023-02-28T12:28:57;101803.63;;;19.36;19.06
75063;BME280;63981;51.052;13.754;2023-02-28T12:31:34;101805.72;;;21.69;17.64
75063;BME280;63981;51.052;13.754;2023-02-28T12:34:06;101821.50;;;15.81;22.25
75063;BME280;63981;51.052;13.754;2023-02-28T12:36:36;101822.09;;;10.97;29.28
75063;BME280;63981;51.052;13.754;2023-02-28T12:39:13;101826.66;;;15.40;24.11
75063;BME280;63981;51.052;13.754;2023-02-28T12:44:14;101802.91;;;16.76;23.19
75063;BME280;63981;51.052;13.754;2023-02-28T12:46:49;101771.97;;;13.35;26.83
75063;BME280;63981;51.052;13.754;2023-02-28T12:49:22;101801.31;;;14.28;25.17
75063;BME280;63981;51.052;13.754;2023-02-28T12:51:51;101798.88;;;16.70;23.09
75063;BME280;63981;51.052;13.754;2023-02-28T12:54:30;101795.53;;;13.24;25.74
75063;BME280;63981;51.052;13.754;2023-02-28T12:57:02;101798.50;;;17.40;22.05
75063;BME280;63981;51.052;13.754;2023-02-28T12:59:41;101761.44;;;9.65;30.60
75063;BME280;63981;51.052;13.754;2023-02-28T13:04:56;101832.56;;;10.34;33.20
75063;BME280;63981;51.052;13.754;2023-02-28T13:07:40;101820.72;;;10.66;30.92
75063;BME280;63981;51.052;13.754;2023-02-28T13:10:12;101826.16;;;11.44;29.81
75063;BME280;63981;51.052;13.754;2023-02-28T13:12:48;101823.13;;;12.84;27.80
75063;BME280;63981;51.052;13.754;2023-02-28T13:15:21;101823.06;;;12.49;28.51
75063;BME280;63981;51.052;13.754;2023-02-28T13:17:54;101798.38;;;12.85;27.63
75063;BME280;63981;51.052;13.754;2023-02-28T13:20:24;101807.34;;;12.65;28.16
75063;BME280;63981;51.052;13.754;2023-02-28T13:22:52;101802.91;;;13.35;26.07
75063;BME280;63981;51.052;13.754;2023-02-28T13:27:51;101818.06;;;11.49;29.05
75063;BME280;63981;51.052;13.754;2023-02-28T13:33:35;101808.06;;;13.71;26.54
75063;BME280;63981;51.052;13.754;2023-02-28T13:36:24;101793.81;;;17.31;22.22
75063;BME280;63981;51.052;13.754;2023-02-28T13:38:52;101791.09;;;17.94;20.96
75063;BME280;63981;51.052;13.754;2023-02-28T13:44:05;101771.59;;;19.81;18.56
75063;BME280;63981;51.052;13.754;2023-02-28T13:46:35;101771.31;;;16.30;22.02
75063;BME280;63981;51.052;13.754;2023-02-28T13:57:27;101808.97;;;10.31;29.60
75063;BME280;63981;51.052;13.754;2023-02-28T14:05:20;101768.19;;;17.92;21.22
75063;BME280;63981;51.052;13.754;2023-02-28T14:07:57;101730.66;;;19.00;19.68
75063;BME280;63981;51.052;13.754;2023-02-28T14:10:27;101769.41;;;15.48;22.99
75063;BME280;63981;51.052;13.754;2023-02-28T14:15:47;101730.66;;;17.69;20.23
75063;BME280;63981;51.052;13.754;2023-02-28T14:20:40;101703.91;;;17.58;19.19
75063;BME280;63981;51.052;13.754;2023-02-28T14:31:34;101715.72;;;18.51;20.10
75063;BME280;63981;51.052;13.754;2023-02-28T14:36:36;101747.78;;;16.64;21.63
75063;BME280;63981;51.052;13.754;2023-02-28T14:39:16;101727.13;;;18.06;20.13
75063;BME280;63981;51.052;13.754;2023-02-28T14:41:45;101754.88;;;13.90;25.87
75063;BME280;63981;51.052;13.754;2023-02-28T14:44:24;101738.69;;;17.31;20.67
75063;BME280;63981;51.052;13.754;2023-02-28T14:46:55;101720.66;;;12.53;26.25
75063;BME280;63981;51.052;13.754;2023-02-28T14:49:27;101752.69;;;14.43;25.77
75063;BME280;63981;51.052;13.754;2023-02-28T14:52:03;101765.72;;;9.68;31.76
75063;BME280;63981;51.052;13.754;2023-02-28T14:54:32;101752.06;;;12.59;27.23
75063;BME280;63981;51.052;13.754;2023-02-28T14:56:58;101759.75;;;10.31;30.21
75063;BME280;63981;51.052;13.754;2023-02-28T14:59:32;101765.81;;;10.55;29.93
75063;BME280;63981;51.052;13.754;2023-02-28T15:02:19;101772.16;;;10.06;31.96
75063;BME280;63981;51.052;13.754;2023-02-28T15:04:56;101775.63;;;9.38;32.22
75063;BME280;63981;51.052;13.754;2023-02-28T15:07:22;101784.16;;;6.57;37.24
75063;BME280;63981;51.052;13.754;2023-02-28T15:10:20;101787.00;;;6.09;40.23
75063;BME280;63981;51.052;13.754;2023-02-28T15:12:57;101785.25;;;6.47;40.73
75063;BME280;63981;51.052;13.754;2023-02-28T15:15:56;101790.53;;;7.14;37.81